Time;durP1;ratioP1;P1;durP2;ratioP2;P2;SDS_P1;SDS_P2;PMS_P1;PMS_P2;Temp;Humidity;BMP_temperature;BMP_pressure;BME280_temperature;BME280_humidity;BME280_pressure;Samples;Min_cycle;Max_cycle;Signal;HPM_P1;HPM_P2
2021/12/26 00:02:17;;;;;;;3.20;2.80;;;;;;;-5.83;100.00;101379.78;5017206;28;20235;-78
2021/12/26 00:04:43;;;;;;;4.70;2.93;;;;;;;-6.20;100.00;101280.72;5021175;28;20232;-76
2021/12/26 00:07:08;;;;;;;5.40;2.83;;;;;;;-6.06;100.00;101305.28;5022325;28;20184;-76
2021/12/26 00:09:34;;;;;;;4.60;3.47;;;;;;;-6.15;100.00;101343.16;5021658;28;20192;-77
2021/12/26 00:11:59;;;;;;;4.50;3.00;;;;;;;-5.81;100.00;101352.66;5020969;28;20198;-76
2021/12/26 00:14:25;;;;;;;4.73;2.70;;;;;;;-5.51;100.00;101401.63;5013672;28;20208;-76
2021/12/26 00:16:50;;;;;;;4.00;2.47;;;;;;;-5.89;100.00;101360.06;5018294;28;20649;-78
2021/12/26 00:19:16;;;;;;;5.27;2.90;;;;;;;-5.58;100.00;101458.59;5025773;28;20218;-77
2021/12/26 00:21:42;;;;;;;4.17;2.77;;;;;;;-5.40;100.00;101445.50;5018818;28;20208;-76
2021/12/26 00:24:08;;;;;;;3.80;2.73;;;;;;;-6.62;100.00;101263.75;5010046;28;22273;-76
2021/12/26 00:26:33;;;;;;;3.73;2.97;;;;;;;-6.09;100.00;101308.06;5022367;28;20222;-76
2021/12/26 00:29:00;;;;;;;3.90;2.60;;;;;;;-5.66;100.00;101378.91;5027637;28;20539;-76
2021/12/26 00:31:26;;;;;;;4.33;2.77;;;;;;;-6.07;100.00;101320.09;5024957;28;20188;-75
2021/12/26 00:33:51;;;;;;;4.70;3.40;;;;;;;-7.55;100.00;101182.34;5024099;28;20521;-76
2021/12/26 00:36:16;;;;;;;3.07;2.43;;;;;;;-6.95;100.00;101330.63;5020680;28;20278;-77
2021/12/26 00:38:42;;;;;;;3.53;2.50;;;;;;;-7.01;100.00;101383.09;5031662;28;20195;-75
2021/12/26 00:41:07;;;;;;;3.83;2.70;;;;;;;-6.68;100.00;101371.03;5020873;28;20208;-76
2021/12/26 00:43:33;;;;;;;5.33;3.07;;;;;;;-7.51;100.00;101178.69;5021417;28;20222;-76
2021/12/26 00:45:58;;;;;;;5.33;3.00;;;;;;;-5.58;100.00;101435.09;5025275;28;20275;-76
2021/12/26 00:48:24;;;;;;;3.53;2.23;;;;;;;-6.22;100.00;101279.09;5021450;28;20180;-75
2021/12/26 00:50:50;;;;;;;3.40;2.30;;;;;;;-6.23;100.00;101367.03;5021935;28;20573;-75
2021/12/26 00:53:15;;;;;;;3.07;2.77;;;;;;;-6.82;100.00;101321.31;5022342;28;20184;-76
2021/12/26 00:55:41;;;;;;;3.00;2.23;;;;;;;-5.97;100.00;101432.78;5022829;28;20446;-75
2021/12/26 00:58:07;;;;;;;3.23;2.93;;;;;;;-6.21;100.00;101344.31;5020805;28;20728;-76
2021/12/26 01:00:37;;;;;;;2.67;2.20;;;;;;;-5.77;100.00;101426.50;5021813;28;20451;-75
2021/12/26 01:03:04;;;;;;;4.50;2.40;;;;;;;-5.62;100.00;101422.25;5021088;28;20307;-76
2021/12/26 01:05:30;;;;;;;3.17;2.53;;;;;;;-5.69;100.00;101390.38;5025810;28;21001;-76
2021/12/26 01:08:00;;;;;;;3.20;2.60;;;;;;;-5.39;100.00;101424.47;5028704;28;21012;-75
2021/12/26 01:10:35;;;;;;;4.10;2.33;;;;;;;-6.09;100.00;101324.56;5026654;28;20466;-75
2021/12/26 01:13:13;;;;;;;5.70;2.40;;;;;;;-5.40;100.00;101406.28;5025012;28;20986;-76
2021/12/26 01:15:38;;;;;;;4.97;2.43;;;;;;;-5.45;100.00;101430.03;5026153;28;20439;-75
2021/12/26 01:18:04;;;;;;;2.80;2.20;;;;;;;-5.94;100.00;101347.25;5020697;28;20794;-76
2021/12/26 01:20:51;;;;;;;5.40;2.33;;;;;;;-5.85;100.00;101368.56;5022830;28;20211;-74
2021/12/26 01:23:20;;;;;;;3.13;2.00;;;;;;;-5.67;100.00;101362.38;5019685;28;20473;-76
2021/12/26 01:25:46;;;;;;;3.93;2.30;;;;;;;-5.85;100.00;101342.44;5023868;28;20478;-75
2021/12/26 01:28:13;;;;;;;2.60;2.17;;;;;;;-6.37;100.00;101273.75;5022188;28;20452;-74
2021/12/26 01:30:40;;;;;;;3.43;2.43;;;;;;;-5.66;100.00;101389.38;5015709;28;20468;-79
2021/12/26 01:33:08;;;;;;;6.13;3.23;;;;;;;-6.12;100.00;101306.44;5024200;28;21086;-76
2021/12/26 01:35:33;;;;;;;3.57;2.70;;;;;;;-6.04;100.00;101293.00;5024326;28;20481;-76
2021/12/26 01:37:58;;;;;;;3.17;2.40;;;;;;;-5.75;100.00;101360.19;5022875;28;20455;-74
2021/12/26 01:40:24;;;;;;;2.83;2.50;;;;;;;-6.16;100.00;101294.47;5020637;28;20188;-75
2021/12/26 01:42:50;;;;;;;6.03;2.60;;;;;;;-6.18;100.00;101331.09;5022776;28;20783;-75
2021/12/26 01:45:15;;;;;;;2.43;2.20;;;;;;;-6.45;100.00;101286.38;5017935;28;20463;-75
2021/12/26 01:47:41;;;;;;;4.23;2.60;;;;;;;-6.25;100.00;101292.31;5024822;28;20192;-75
2021/12/26 01:50:08;;;;;;;3.33;2.67;;;;;;;-6.18;100.00;101319.81;5020783;28;20184;-75
2021/12/26 01:52:34;;;;;;;4.57;2.63;;;;;;;-5.72;100.00;101387.91;5021926;28;20194;-75
2021/12/26 01:55:22;;;;;;;4.50;2.07;;;;;;;-5.89;100.00;101377.50;5023021;28;20455;-75
2021/12/26 01:57:45;;;;;;;4.13;2.97;;;;;;;-5.91;100.00;101386.25;5023536;28;20885;-75
2021/12/26 02:00:11;;;;;;;4.37;2.67;;;;;;;-6.41;100.00;101300.94;5020760;28;20477;-76
2021/12/26 02:02:36;;;;;;;3.30;2.50;;;;;;;-6.46;100.00;101323.81;5023224;28;20703;-75
2021/12/26 02:05:02;;;;;;;4.37;2.50;;;;;;;-5.97;100.00;101359.63;5020521;28;20684;-76
2021/12/26 02:07:27;;;;;;;2.80;2.40;;;;;;;-7.25;100.00;101164.38;5024401;28;20180;-76
2021/12/26 02:09:53;;;;;;;5.00;2.90;;;;;;;-5.94;100.00;101388.22;5023783;28;21117;-76
2021/12/26 02:12:18;;;;;;;2.40;2.20;;;;;;;-6.42;100.00;101290.56;5021230;28;20182;-76
2021/12/26 02:14:44;;;;;;;2.20;1.90;;;;;;;-7.11;100.00;101192.34;5023275;28;20211;-76
2021/12/26 02:17:09;;;;;;;2.77;2.57;;;;;;;-6.66;100.00;101298.72;5018774;28;20192;-76
2021/12/26 02:19:35;;;;;;;7.17;2.60;;;;;;;-7.52;100.00;101120.53;5026845;28;20608;-75
2021/12/26 02:22:09;;;;;;;4.23;2.57;;;;;;;-6.48;100.00;101243.91;5027854;28;20220;-76
2021/12/26 02:27:33;;;;;;;3.37;2.40;;;;;;;-6.20;100.00;101312.03;5020730;28;20430;-75
2021/12/26 02:30:07;;;;;;;2.57;2.30;;;;;;;-6.10;100.00;101330.72;5019378;28;20428;-76
2021/12/26 02:32:33;;;;;;;4.53;2.93;;;;;;;-5.91;100.00;101369.72;5027543;28;20946;-76
2021/12/26 02:34:59;;;;;;;3.63;2.47;;;;;;;-6.15;100.00;101335.31;5023446;28;20473;-76
2021/12/26 02:37:25;;;;;;;2.50;2.30;;;;;;;-6.75;100.00;101254.84;5024140;28;20198;-75
2021/12/26 02:39:51;;;;;;;3.40;2.60;;;;;;;-6.93;100.00;101201.00;5021063;28;20566;-75
2021/12/26 02:42:23;;;;;;;2.53;2.33;;;;;;;-6.54;100.00;101242.47;5024101;28;20516;-75
2021/12/26 02:44:48;;;;;;;2.60;2.40;;;;;;;-5.92;100.00;101373.28;5027779;28;20471;-75
2021/12/26 02:47:36;;;;;;;2.83;2.53;;;;;;;-6.12;100.00;101360.44;5022170;28;20469;-75
2021/12/26 02:50:09;;;;;;;2.97;2.70;;;;;;;-6.41;100.00;101302.72;5020501;28;20187;-76
2021/12/26 02:52:34;;;;;;;2.93;2.50;;;;;;;-6.17;100.00;101353.66;5018971;28;21523;-75
2021/12/26 02:55:00;;;;;;;3.60;2.20;;;;;;;-6.66;100.00;101279.63;5014723;28;20480;-75
2021/12/26 02:57:26;;;;;;;2.73;2.13;;;;;;;-6.94;100.00;101194.09;5024019;28;20225;-76
2021/12/26 02:59:51;;;;;;;2.57;2.17;;;;;;;-8.34;100.00;101114.06;5016631;28;20188;-75
2021/12/26 03:02:17;;;;;;;4.20;2.50;;;;;;;-6.21;100.00;101346.09;5020475;28;20242;-75
2021/12/26 03:04:42;;;;;;;3.80;2.73;;;;;;;-6.02;100.00;101346.81;5020503;28;21830;-74
2021/12/26 03:07:07;;;;;;;4.77;2.17;;;;;;;-6.61;100.00;101264.59;5018563;28;21350;-74
2021/12/26 03:09:44;;;;;;;5.03;2.27;;;;;;;-6.29;100.00;101280.38;5023273;28;20403;-75
2021/12/26 03:12:10;;;;;;;2.73;2.23;;;;;;;-5.96;100.00;101348.25;5019751;28;20163;-74
2021/12/26 03:14:38;;;;;;;2.20;1.77;;;;;;;-7.19;100.00;101220.56;5021888;28;20459;-75
2021/12/26 03:17:04;;;;;;;2.80;1.83;;;;;;;-6.61;100.00;101273.25;5023491;28;20447;-75
2021/12/26 03:19:32;;;;;;;5.13;2.73;;;;;;;-6.16;100.00;101354.53;5024795;28;20931;-76
2021/12/26 03:21:57;;;;;;;4.67;2.20;;;;;;;-6.47;100.00;101336.97;5016239;28;20552;-76
2021/12/26 03:24:23;;;;;;;2.97;2.23;;;;;;;-6.27;100.00;101351.63;5020722;28;20468;-74
2021/12/26 03:26:48;;;;;;;3.00;2.37;;;;;;;-6.28;100.00;101362.97;5019238;28;20187;-75
2021/12/26 03:29:14;;;;;;;3.93;2.40;;;;;;;-6.79;100.00;101279.41;5025824;28;21006;-74
2021/12/26 03:31:41;;;;;;;2.83;2.30;;;;;;;-6.99;100.00;101233.47;5018622;28;20176;-76
2021/12/26 03:34:07;;;;;;;4.73;2.20;;;;;;;-7.42;100.00;101188.66;5018136;28;20211;-75
2021/12/26 03:36:32;;;;;;;4.40;3.20;;;;;;;-6.18;100.00;101365.03;5023310;28;20515;-75
2021/12/26 03:38:58;;;;;;;6.80;2.00;;;;;;;-6.18;100.00;101336.31;5022871;28;20443;-75
2021/12/26 03:41:23;;;;;;;4.40;2.63;;;;;;;-6.25;100.00;101352.38;5020328;28;20216;-75
2021/12/26 03:43:48;;;;;;;5.30;2.67;;;;;;;-6.70;100.00;101229.38;5021418;28;20218;-76
2021/12/26 03:46:14;;;;;;;3.80;2.50;;;;;;;-6.19;100.00;101313.75;5020460;28;20656;-76
2021/12/26 03:48:39;;;;;;;3.17;2.60;;;;;;;-7.02;100.00;101215.34;5022538;28;20184;-77
2021/12/26 03:51:05;;;;;;;4.07;2.57;;;;;;;-6.88;100.00;101210.28;5025744;28;20266;-76
2021/12/26 03:53:31;;;;;;;4.93;2.60;;;;;;;-6.67;100.00;101268.34;5015248;28;20687;-76
2021/12/26 03:55:56;;;;;;;3.17;2.07;;;;;;;-7.44;100.00;101143.56;5023415;28;20183;-76
2021/12/26 03:58:22;;;;;;;5.50;2.70;;;;;;;-6.91;100.00;101282.63;5026720;28;20241;-76
2021/12/26 04:00:49;;;;;;;3.23;2.20;;;;;;;-6.96;100.00;101263.75;5026445;28;20280;-75
2021/12/26 04:03:14;;;;;;;3.27;2.37;;;;;;;-7.53;100.00;101194.38;5021424;28;20333;-76
2021/12/26 04:05:40;;;;;;;2.77;2.30;;;;;;;-8.44;100.00;101082.47;5023516;28;21373;-75
2021/12/26 04:08:05;;;;;;;3.67;2.23;;;;;;;-7.23;100.00;101234.66;5024009;28;20446;-75
2021/12/26 04:10:31;;;;;;;3.67;2.30;;;;;;;-6.32;100.00;101354.47;5024958;28;20198;-75
2021/12/26 04:12:58;;;;;;;2.53;2.00;;;;;;;-6.92;100.00;101210.50;5023573;28;20179;-75
2021/12/26 04:15:24;;;;;;;3.93;2.37;;;;;;;-7.36;100.00;101177.91;5025123;28;21067;-74
2021/12/26 04:17:55;;;;;;;2.80;2.03;;;;;;;-6.95;100.00;101253.22;5025500;28;20792;-76
2021/12/26 04:20:22;;;;;;;3.60;2.23;;;;;;;-7.03;100.00;101267.56;5024556;28;20454;-75
2021/12/26 04:22:48;;;;;;;3.80;2.80;;;;;;;-6.41;100.00;101308.78;5021493;28;20474;-74
2021/12/26 04:25:14;;;;;;;3.00;2.23;;;;;;;-6.96;100.00;101227.25;5022896;28;20473;-74
2021/12/26 04:27:39;;;;;;;4.20;2.33;;;;;;;-6.67;100.00;101317.94;5032458;28;20443;-76
2021/12/26 04:30:08;;;;;;;2.80;2.17;;;;;;;-6.54;100.00;101325.13;5026680;28;20187;-76
2021/12/26 04:32:33;;;;;;;2.90;2.00;;;;;;;-6.74;100.00;101310.47;5029136;28;20183;-77
2021/12/26 04:34:59;;;;;;;3.97;2.10;;;;;;;-7.05;100.00;101241.59;5025036;28;20466;-75
2021/12/26 04:37:24;;;;;;;2.50;1.90;;;;;;;-6.83;100.00;101304.81;5030091;28;20207;-75
2021/12/26 04:39:50;;;;;;;6.30;2.33;;;;;;;-7.31;100.00;101228.06;5027150;28;20191;-75
2021/12/26 04:42:16;;;;;;;3.87;1.80;;;;;;;-7.20;100.00;101237.09;5023656;28;20216;-75
2021/12/26 04:44:42;;;;;;;2.90;2.00;;;;;;;-7.11;100.00;101226.25;5025742;28;20686;-76
2021/12/26 04:47:07;;;;;;;2.50;1.97;;;;;;;-7.00;100.00;101223.09;5025849;28;20492;-75
2021/12/26 04:49:33;;;;;;;2.67;1.90;;;;;;;-6.87;100.00;101208.53;5023522;28;20331;-75
2021/12/26 04:51:58;;;;;;;3.53;2.00;;;;;;;-6.55;100.00;101279.09;5023085;28;20764;-74
2021/12/26 04:54:23;;;;;;;3.03;1.87;;;;;;;-6.28;100.00;101331.66;5015771;28;20214;-76
2021/12/26 04:56:49;;;;;;;4.07;1.90;;;;;;;-6.72;100.00;101212.94;5025703;28;20184;-74
2021/12/26 04:59:14;;;;;;;3.60;2.20;;;;;;;-6.32;100.00;101338.78;5024332;28;20199;-75
2021/12/26 05:01:40;;;;;;;3.10;1.63;;;;;;;-6.12;100.00;101329.09;5022121;28;20208;-75
2021/12/26 05:04:05;;;;;;;2.60;2.00;;;;;;;-6.72;100.00;101240.81;5022269;28;20609;-75
2021/12/26 05:06:31;;;;;;;3.33;1.93;;;;;;;-7.00;100.00;101236.13;5027351;28;20690;-75
2021/12/26 05:08:56;;;;;;;2.23;1.80;;;;;;;-6.52;100.00;101278.94;5021366;28;20184;-75
2021/12/26 05:11:22;;;;;;;2.83;1.57;;;;;;;-6.71;100.00;101250.31;5025850;28;20636;-76
2021/12/26 05:13:47;;;;;;;2.83;2.00;;;;;;;-7.09;100.00;101174.84;5024536;28;20211;-75
2021/12/26 05:16:13;;;;;;;2.27;1.73;;;;;;;-5.99;100.00;101285.72;5028375;28;20642;-75
2021/12/26 05:18:38;;;;;;;2.80;1.90;;;;;;;-6.59;100.00;101197.53;5026487;28;20283;-75
2021/12/26 05:21:04;;;;;;;1.73;1.60;;;;;;;-6.09;100.00;101313.28;5022905;28;20195;-75
2021/12/26 05:23:29;;;;;;;2.80;1.97;;;;;;;-6.12;100.00;101253.38;5017972;28;20192;-75
2021/12/26 05:25:55;;;;;;;3.70;2.03;;;;;;;-6.80;100.00;101181.19;5024374;28;20184;-76
2021/12/26 05:28:20;;;;;;;3.43;2.00;;;;;;;-6.20;100.00;101243.31;5022391;28;20244;-75
2021/12/26 05:30:45;;;;;;;3.10;2.00;;;;;;;-5.96;100.00;101307.31;5023560;28;20180;-74
2021/12/26 05:33:11;;;;;;;5.37;2.20;;;;;;;-6.67;100.00;101197.06;5025175;28;20187;-74
2021/12/26 05:35:37;;;;;;;4.73;2.27;;;;;;;-6.78;100.00;101142.84;5029288;28;20208;-74
2021/12/26 05:38:03;;;;;;;2.60;1.97;;;;;;;-5.70;100.00;101300.69;5022275;28;20529;-74
2021/12/26 05:40:28;;;;;;;3.60;1.83;;;;;;;-6.52;100.00;101213.69;5019506;28;20645;-74
2021/12/26 05:42:54;;;;;;;3.27;1.80;;;;;;;-5.87;100.00;101258.94;5029397;28;20465;-73
2021/12/26 05:45:19;;;;;;;2.70;1.90;;;;;;;-6.83;100.00;101117.00;5022156;28;20214;-74
2021/12/26 05:47:45;;;;;;;2.50;1.93;;;;;;;-6.11;100.00;101221.94;5020897;28;20267;-75
2021/12/26 05:50:15;;;;;;;3.23;2.03;;;;;;;-5.82;100.00;101277.81;5021027;28;20336;-74
2021/12/26 05:52:41;;;;;;;3.70;2.60;;;;;;;-6.07;100.00;101261.81;5021523;28;20184;-73
2021/12/26 05:55:08;;;;;;;3.17;2.00;;;;;;;-6.14;100.00;101232.53;5024912;28;20457;-73
2021/12/26 05:57:33;;;;;;;2.00;1.73;;;;;;;-6.39;100.00;101220.81;5020165;28;20204;-74
2021/12/26 05:59:59;;;;;;;2.90;2.17;;;;;;;-5.77;100.00;101280.19;5020295;28;20581;-75
2021/12/26 06:02:24;;;;;;;4.70;1.97;;;;;;;-5.75;100.00;101294.84;5020351;28;20204;-74
2021/12/26 06:04:50;;;;;;;3.17;2.20;;;;;;;-5.72;100.00;101272.94;5028186;28;20216;-74
2021/12/26 06:07:16;;;;;;;3.27;2.60;;;;;;;-6.14;100.00;101164.66;5024050;28;20188;-74
2021/12/26 06:09:41;;;;;;;3.07;2.37;;;;;;;-6.35;100.00;101150.16;5013153;28;21068;-74
2021/12/26 06:12:07;;;;;;;2.80;1.63;;;;;;;-6.38;100.00;101177.28;5020062;28;20223;-74
2021/12/26 06:14:32;;;;;;;2.13;1.80;;;;;;;-6.09;100.00;101157.41;5019199;28;20285;-74
2021/12/26 06:16:58;;;;;;;3.77;2.20;;;;;;;-6.16;100.00;101185.63;5020218;28;21338;-74
2021/12/26 06:19:23;;;;;;;4.60;2.07;;;;;;;-6.26;100.00;101176.59;5022778;28;20184;-76
2021/12/26 06:21:48;;;;;;;5.23;2.30;;;;;;;-5.66;100.00;101275.22;5019691;28;20200;-76
2021/12/26 06:24:14;;;;;;;3.37;2.27;;;;;;;-5.36;100.00;101266.59;5017496;28;20641;-73
2021/12/26 06:26:39;;;;;;;4.63;2.23;;;;;;;-5.58;100.00;101274.78;5022602;28;20234;-74
2021/12/26 06:29:05;;;;;;;2.33;1.87;;;;;;;-5.84;100.00;101242.22;5022691;28;20242;-73
2021/12/26 06:31:30;;;;;;;2.53;2.23;;;;;;;-7.29;100.00;100998.59;5023926;28;20172;-75
2021/12/26 06:33:56;;;;;;;3.10;2.30;;;;;;;-5.70;100.00;101265.84;5027242;28;20215;-73
2021/12/26 06:36:21;;;;;;;4.03;2.30;;;;;;;-6.50;100.00;101128.34;5024720;28;20181;-75
2021/12/26 06:38:47;;;;;;;2.73;2.30;;;;;;;-5.80;100.00;101243.78;5023502;28;20183;-74
2021/12/26 06:41:13;;;;;;;3.17;1.97;;;;;;;-5.54;100.00;101271.09;5021988;28;20188;-74
2021/12/26 06:43:39;;;;;;;3.33;2.37;;;;;;;-5.84;100.00;101268.34;5021806;28;20235;-74
2021/12/26 06:46:05;;;;;;;3.17;2.07;;;;;;;-5.75;100.00;101280.94;5022431;28;20438;-74
2021/12/26 06:48:32;;;;;;;3.30;2.10;;;;;;;-5.64;100.00;101267.28;5026373;28;20525;-74
2021/12/26 06:50:57;;;;;;;3.83;2.43;;;;;;;-6.14;100.00;101199.44;5025984;28;20467;-74
2021/12/26 06:53:23;;;;;;;4.00;2.17;;;;;;;-6.28;100.00;101209.78;5024273;28;20477;-74
2021/12/26 06:55:48;;;;;;;2.90;1.97;;;;;;;-6.33;100.00;101179.63;5025945;28;20200;-74
2021/12/26 06:58:15;;;;;;;4.00;2.30;;;;;;;-6.28;100.00;101199.34;5018109;28;20810;-75
2021/12/26 07:00:42;;;;;;;3.47;1.93;;;;;;;-6.45;100.00;101150.66;5018130;28;20202;-74
2021/12/26 07:03:08;;;;;;;2.50;2.07;;;;;;;-6.05;100.00;101202.47;5021147;28;20458;-74
2021/12/26 07:05:33;;;;;;;5.33;2.20;;;;;;;-6.46;100.00;101107.19;5022689;28;20454;-77
2021/12/26 07:07:59;;;;;;;2.70;2.10;;;;;;;-6.62;100.00;101101.97;5025602;28;20185;-74
2021/12/26 07:10:24;;;;;;;3.43;1.93;;;;;;;-5.74;100.00;101259.94;5020698;28;20744;-74
2021/12/26 07:12:50;;;;;;;2.80;2.03;;;;;;;-5.97;100.00;101235.09;5020714;28;20279;-74
2021/12/26 07:15:15;;;;;;;2.83;1.60;;;;;;;-5.82;100.00;101249.06;5019449;28;20563;-74
2021/12/26 07:17:42;;;;;;;3.17;2.00;;;;;;;-6.15;100.00;101166.44;5015094;28;20664;-74
2021/12/26 07:20:11;;;;;;;1.83;1.50;;;;;;;-5.47;100.00;101236.69;5024613;28;20684;-73
2021/12/26 07:22:38;;;;;;;3.03;1.67;;;;;;;-5.64;100.00;101228.94;5025734;28;20459;-73
2021/12/26 07:25:05;;;;;;;2.93;2.10;;;;;;;-5.89;100.00;101200.69;5021880;28;20461;-74
2021/12/26 07:27:32;;;;;;;5.20;1.80;;;;;;;-5.75;100.00;101185.09;5027980;28;20472;-73
2021/12/26 07:29:58;;;;;;;1.90;1.60;;;;;;;-6.11;100.00;101109.66;5026826;28;20495;-73
2021/12/26 07:32:24;;;;;;;3.23;2.10;;;;;;;-6.18;100.00;101096.09;5029133;28;20587;-74
2021/12/26 07:34:52;;;;;;;2.13;1.83;;;;;;;-6.79;100.00;100995.09;5027571;28;21142;-74
2021/12/26 07:37:18;;;;;;;2.30;2.07;;;;;;;-6.16;100.00;101086.41;5027814;28;20516;-74
2021/12/26 07:39:43;;;;;;;2.50;2.00;;;;;;;-5.61;100.00;101176.50;5027498;28;20800;-74
2021/12/26 07:42:09;;;;;;;3.30;1.40;;;;;;;-5.40;100.00;101231.94;5029015;28;20691;-74
2021/12/26 07:44:35;;;;;;;3.00;1.60;;;;;;;-5.28;100.00;101223.41;5030253;28;20254;-74
2021/12/26 07:47:00;;;;;;;1.87;1.40;;;;;;;-5.64;100.00;101181.03;5027795;28;20963;-74
2021/12/26 07:49:27;;;;;;;2.13;1.57;;;;;;;-5.14;100.00;101235.69;5024512;28;20192;-74
2021/12/26 07:51:54;;;;;;;2.40;1.67;;;;;;;-5.39;100.00;101197.00;5027554;28;20185;-75
2021/12/26 07:54:23;;;;;;;1.67;1.50;;;;;;;-5.31;100.00;101238.44;5032535;28;21186;-74
2021/12/26 07:56:49;;;;;;;3.20;1.97;;;;;;;-5.29;100.00;101166.81;5023590;28;20439;-74
2021/12/26 07:59:15;;;;;;;3.87;1.80;;;;;;;-5.59;100.00;101134.56;5019881;28;20456;-74
2021/12/26 08:01:40;;;;;;;2.30;1.80;;;;;;;-5.10;100.00;101228.50;5021975;28;20458;-74
2021/12/26 08:04:08;;;;;;;1.70;1.50;;;;;;;-5.47;100.00;101176.56;5023561;28;20204;-74
2021/12/26 08:06:34;;;;;;;1.40;1.30;;;;;;;-5.29;100.00;101192.13;5028582;28;20181;-74
2021/12/26 08:08:59;;;;;;;3.77;1.47;;;;;;;-6.19;100.00;101070.94;5027512;28;20504;-73
2021/12/26 08:11:25;;;;;;;1.67;1.57;;;;;;;-6.69;100.00;101022.34;5022282;28;20176;-74
2021/12/26 08:13:51;;;;;;;2.67;2.03;;;;;;;-5.45;100.00;101185.13;5024470;28;20239;-74
2021/12/26 08:16:16;;;;;;;1.77;1.23;;;;;;;-5.37;100.00;101178.66;5016330;28;20191;-74
2021/12/26 08:18:42;;;;;;;2.83;2.20;;;;;;;-6.21;100.00;101095.44;5019095;28;21344;-74
2021/12/26 08:21:08;;;;;;;3.27;1.40;;;;;;;-4.98;100.00;101251.34;5020553;28;20500;-73
2021/12/26 08:23:34;;;;;;;2.37;1.70;;;;;;;-5.32;100.00;101213.19;5021078;28;20497;-74
2021/12/26 08:26:01;;;;;;;2.10;1.90;;;;;;;-5.10;100.00;101239.81;5014961;28;20445;-72
2021/12/26 08:28:27;;;;;;;2.50;1.90;;;;;;;-5.37;100.00;101205.63;5021115;28;20184;-73
2021/12/26 08:30:53;;;;;;;3.73;1.97;;;;;;;-5.09;100.00;101261.56;5028457;28;20962;-71
2021/12/26 08:33:18;;;;;;;3.53;1.80;;;;;;;-5.52;100.00;101175.97;5026381;28;20215;-74
2021/12/26 08:35:46;;;;;;;2.13;1.77;;;;;;;-5.01;100.00;101261.97;5019747;28;21023;-74
2021/12/26 08:38:14;;;;;;;2.47;2.13;;;;;;;-5.65;100.00;101172.34;5021786;28;20661;-74
2021/12/26 08:40:39;;;;;;;2.63;1.73;;;;;;;-5.75;100.00;101132.00;5021035;28;20517;-77
2021/12/26 08:43:06;;;;;;;1.80;1.60;;;;;;;-5.64;100.00;101136.59;5030298;28;20503;-73
2021/12/26 08:45:31;;;;;;;2.00;1.80;;;;;;;-5.69;100.00;101166.47;5011456;28;20220;-73
2021/12/26 08:47:57;;;;;;;5.77;3.90;;;;;;;-5.66;100.00;101130.66;5011672;28;20443;-73
2021/12/26 08:50:25;;;;;;;22.13;13.10;;;;;;;-4.76;100.00;101264.03;5016138;28;20195;-73
2021/12/26 08:52:51;;;;;;;61.60;32.80;;;;;;;-5.49;100.00;101156.66;5026091;28;20188;-73
2021/12/26 08:55:17;;;;;;;27.10;16.40;;;;;;;-4.73;100.00;101258.59;5014447;28;20466;-73
2021/12/26 08:57:42;;;;;;;13.10;9.00;;;;;;;-5.05;100.00;101176.78;5025656;28;20498;-73
2021/12/26 09:00:10;;;;;;;13.80;8.00;;;;;;;-5.14;100.00;101145.94;5019252;28;20203;-74
2021/12/26 09:02:36;;;;;;;12.93;7.57;;;;;;;-4.97;100.00;101187.63;5014064;28;20236;-74
2021/12/26 09:05:02;;;;;;;17.30;8.23;;;;;;;-4.74;100.00;101215.06;5018385;28;20661;-73
2021/12/26 09:07:28;;;;;;;29.30;14.40;;;;;;;-5.32;100.00;101091.16;5021559;28;20188;-74
2021/12/26 09:09:55;;;;;;;18.27;9.97;;;;;;;-5.88;100.00;100974.25;5021124;28;20427;-74
2021/12/26 09:12:21;;;;;;;18.03;10.83;;;;;;;-4.94;100.00;101119.41;5027917;28;20427;-74
2021/12/26 09:14:46;;;;;;;9.87;6.87;;;;;;;-5.91;100.00;100952.59;5021887;28;20477;-73
2021/12/26 09:17:11;;;;;;;11.70;7.37;;;;;;;-4.43;100.00;101218.44;5019466;28;20713;-73
2021/12/26 09:19:37;;;;;;;7.67;5.23;;;;;;;-4.78;100.00;101129.78;5023363;28;20181;-74
2021/12/26 09:22:05;;;;;;;8.00;3.90;;;;;;;-4.43;100.00;101160.81;5024149;28;20200;-73
2021/12/26 09:24:31;;;;;;;3.27;2.90;;;;;;;-3.69;100.00;101248.81;5038729;28;20596;-73
2021/12/26 09:26:56;;;;;;;3.83;2.50;;;;;;;-3.83;100.00;101220.81;5024140;28;20439;-73
2021/12/26 09:29:23;;;;;;;3.00;2.70;;;;;;;-3.79;100.00;101242.44;5023866;28;20188;-73
2021/12/26 09:31:50;;;;;;;3.67;2.93;;;;;;;-3.73;100.00;101245.53;5012102;28;20234;-74
2021/12/26 09:34:16;;;;;;;3.60;2.30;;;;;;;-3.61;100.00;101232.59;5013653;28;20479;-74
2021/12/26 09:36:42;;;;;;;4.30;2.93;;;;;;;-4.42;100.00;101089.22;5022009;28;20961;-73
2021/12/26 09:39:07;;;;;;;9.87;7.17;;;;;;;-3.49;100.00;101253.63;5013812;28;20465;-73
2021/12/26 09:41:33;;;;;;;5.17;4.67;;;;;;;-3.23;100.00;101241.44;5014822;28;20204;-66
2021/12/26 09:43:59;;;;;;;4.17;3.77;;;;;;;-3.36;100.00;101213.47;5026786;28;20362;-76
2021/12/26 09:46:28;;;;;;;3.43;2.20;;;;;;;-3.42;100.00;101194.56;5013369;28;20195;-74
2021/12/26 09:48:54;;;;;;;2.20;2.00;;;;;;;-3.39;100.00;101162.06;5018992;28;20492;-74
2021/12/26 09:51:19;;;;;;;2.30;2.00;;;;;;;-4.65;100.00;101005.09;5015724;28;20955;-72
2021/12/26 09:53:44;;;;;;;3.27;2.00;;;;;;;-3.14;100.00;101229.50;5015986;28;20235;-70
2021/12/26 09:56:11;;;;;;;2.90;2.00;;;;;;;-3.05;100.00;101228.91;5014742;28;20203;-71
2021/12/26 09:59:07;;;;;;;1.87;1.47;;;;;;;-3.16;100.00;101199.06;5026052;28;20553;-70
2021/12/26 10:01:37;;;;;;;3.00;1.83;;;;;;;-2.74;100.00;101221.63;5022655;28;20260;-69
2021/12/26 10:04:16;;;;;;;6.40;2.27;;;;;;;-3.12;100.00;101166.44;5025808;28;20462;-69
2021/12/26 10:06:41;;;;;;;4.73;2.50;;;;;;;-2.73;100.00;101216.25;5021102;28;20457;-70
2021/12/26 10:09:09;;;;;;;3.13;2.03;;;;;;;-2.80;100.00;101207.13;5022681;28;20458;-68
2021/12/26 10:11:38;;;;;;;2.33;1.80;;;;;;;-2.91;100.00;101204.38;5022783;28;20810;-69
2021/12/26 10:14:09;;;;;;;3.40;2.27;;;;;;;-3.03;100.00;101173.69;5023886;28;20550;-70
2021/12/26 10:16:40;;;;;;;3.57;1.97;;;;;;;-3.39;100.00;101114.84;5020854;28;20879;-71
2021/12/26 10:19:06;;;;;;;2.80;1.90;;;;;;;-2.76;100.00;101184.94;5018153;28;20438;-70
2021/12/26 10:21:48;;;;;;;3.73;2.20;;;;;;;-2.79;100.00;101166.78;5022682;28;20475;-69
2021/12/26 10:24:17;;;;;;;3.07;1.90;;;;;;;-2.67;100.00;101196.59;5013093;28;20560;-70
2021/12/26 10:26:54;;;;;;;2.10;1.67;;;;;;;-2.45;100.00;101185.47;5014569;28;20470;-70
2021/12/26 10:29:42;;;;;;;2.23;1.60;;;;;;;-2.34;100.00;101187.38;5018489;28;20565;-69
2021/12/26 10:32:11;;;;;;;3.43;1.93;;;;;;;-2.54;100.00;101150.19;5026490;28;20967;-71
2021/12/26 10:34:45;;;;;;;2.70;1.60;;;;;;;-2.28;100.00;101173.81;5022838;28;20470;-71
2021/12/26 10:37:12;;;;;;;2.10;1.80;;;;;;;-2.29;100.00;101174.72;5020716;28;20942;-71
2021/12/26 10:39:44;;;;;;;2.53;1.47;;;;;;;-2.20;100.00;101175.88;5018728;28;20457;-71
2021/12/26 10:42:13;;;;;;;2.40;1.67;;;;;;;-2.44;100.00;101092.56;5015068;28;20477;-72
2021/12/26 10:44:45;;;;;;;2.43;1.73;;;;;;;-2.00;100.00;101156.06;5015940;28;20470;-72
2021/12/26 10:47:18;;;;;;;3.50;1.93;;;;;;;-1.91;100.00;101156.25;5027100;28;20975;-71
2021/12/26 10:49:48;;;;;;;1.50;1.40;;;;;;;-1.93;100.00;101152.06;5020113;28;20441;-72
2021/12/26 10:52:23;;;;;;;6.67;2.10;;;;;;;-1.94;100.00;101143.34;5017732;28;20572;-72
2021/12/26 10:55:00;;;;;;;2.50;1.80;;;;;;;-1.91;100.00;101139.63;5022337;28;20485;-72
2021/12/26 10:57:36;;;;;;;10.77;6.47;;;;;;;-1.90;100.00;101171.06;5023886;28;20939;-72
2021/12/26 11:00:10;;;;;;;26.80;12.50;;;;;;;-1.60;100.00;101146.94;5023950;28;20448;-72
2021/12/26 11:02:39;;;;;;;7.60;4.47;;;;;;;-1.50;100.00;101148.94;5026069;28;22544;-73
2021/12/26 11:05:09;;;;;;;6.90;4.10;;;;;;;-1.82;100.00;101108.25;5022820;28;20454;-73
2021/12/26 11:07:49;;;;;;;3.53;2.50;;;;;;;-1.62;100.00;101146.25;5021525;28;20447;-74
2021/12/26 11:10:27;;;;;;;4.07;2.63;;;;;;;-1.73;100.00;101088.34;5023205;28;20439;-74
2021/12/26 11:12:55;;;;;;;4.60;2.67;;;;;;;-1.63;100.00;101091.09;5023560;28;20462;-73
2021/12/26 11:15:23;;;;;;;4.80;2.83;;;;;;;-1.31;100.00;101129.97;5026837;28;20467;-72
2021/12/26 11:18:13;;;;;;;7.90;4.90;;;;;;;-1.63;100.00;101091.09;5024994;28;20519;-72
2021/12/26 11:20:45;;;;;;;4.80;3.10;;;;;;;-1.34;100.00;101114.41;5017541;28;20457;-72